Chattanooga, TN (37421)

3:45 PM EST on December 19, 2014 (GMT -0500)
East Brainerd | Change Station
CLOSE
Current Station
Personal Weather Station
Location: Chattanooga, TN
Elevation: 804 ft
Nearby Weather Stations

Elev 804 ft 35.03 °N, 85.13 °W | Updated 6 minutes ago

Mostly Cloudy
Mostly Cloudy
48.2 °F
Feels Like 48 °F
N
0.0
Wind Variable Wind from SW

Today
High -- | Low -- °F
--% Chance of Precip.
Yesterday
High -- | Low -- °F
Precip. -- in
7:43 AM 5:31 PM
Waning Crescent, 6% visible
Pressure 30.16 in
Visibility 10.0 miles
Clouds Scattered Clouds 5000 ft
Mostly Cloudy 20000 ft
Mostly Cloudy 25000 ft
Windchill 48 °F
Dew Point 38 °F
Humidity 69%
Rainfall 0.00 in
Snow Depth Not available.
UV 1 out of 12
Pollen .10 out of 12
Air Quality Not available.
Flu Activity Not available.
METAR KCHA 191953Z 03006KT 10SM SCT050 BKN200 BKN250 08/M03 A3016 RMK AO2 SLP213 T00831028

More Conditions Fewer Conditions

Pressure 30.16 in
Visibility 10.0 miles
Clouds Scattered Clouds 5000 ft
Mostly Cloudy 20000 ft
Mostly Cloudy 25000 ft
Windchill 48 °F
Dew Point 38 °F
Humidity 69%
Rainfall 0.00 in
Snow Depth Not available.
UV 1 out of 12
Pollen .10 out of 12
Air Quality Not available.
Flu Activity Not available.
METAR KCHA 191953Z 03006KT 10SM SCT050 BKN200 BKN250 08/M03 A3016 RMK AO2 SLP213 T00831028

More Conditions Fewer Conditions

10-Day Weather Forecast

Almanac

Astronomy

Dec. 19, 2014 Rise Set
Actual Time
Civil Twilight
Nautical Twilight
Astronomical Twilight
Moon
Length of Visible Light
Length of Day
Tomorrow will be .
, % of the Moon is Illuminated

Today's Extremes

State Highs State Lows

Community

WunderPhotos

Upload Photos

1,779,048 photos uploaded!

WunderBlogs® & News

Nearby

Air Quality

  Air Quality AQ Index Pollutant
Not available.

Snow Depth

Station Depth Elevation

Earthquake Activity

City Distance Mag. Time & Date
Minimum magnitude displayed is 2.5.

Coastal Water Temperatures

Place Temperature

Nearby Weather Stations